createdAt,value
2023-03-26T00:02:45.126Z,9.00
2023-03-26T00:06:48.771Z,9.00
2023-03-26T00:10:50.788Z,8.90
2023-03-26T00:14:52.724Z,8.90
2023-03-26T00:18:54.474Z,8.90
2023-03-26T00:22:56.115Z,8.90
2023-03-26T00:26:57.927Z,8.90
2023-03-26T00:31:03.986Z,8.90
2023-03-26T00:35:05.894Z,8.90
2023-03-26T00:39:08.084Z,8.90
2023-03-26T00:43:19.450Z,8.80
2023-03-26T00:47:21.349Z,8.80
2023-03-26T00:51:23.489Z,8.80
2023-03-26T00:55:25.082Z,8.70
2023-03-26T00:59:30.203Z,8.70
2023-03-26T01:03:36.493Z,8.70
2023-03-26T01:07:38.185Z,8.80
2023-03-26T01:11:40.087Z,8.70
2023-03-26T01:15:41.919Z,8.70
2023-03-26T01:19:44.627Z,8.70
2023-03-26T01:23:49.016Z,8.60
2023-03-26T01:27:53.199Z,8.60
2023-03-26T01:31:58.636Z,8.60
2023-03-26T01:36:13.590Z,8.70
2023-03-26T01:40:20.516Z,8.70
2023-03-26T01:44:35.654Z,8.70
2023-03-26T01:48:39.358Z,8.60
2023-03-26T01:52:41.052Z,8.60
2023-03-26T01:57:12.206Z,8.60
2023-03-26T02:01:37.320Z,8.60
2023-03-26T02:05:44.708Z,8.50
2023-03-26T02:09:49.910Z,8.50
2023-03-26T02:13:51.789Z,8.50
2023-03-26T02:17:54.075Z,8.40
2023-03-26T02:21:59.694Z,8.40
2023-03-26T02:26:08.459Z,8.40
2023-03-26T02:30:11.500Z,8.40
2023-03-26T04:07:24.721Z,8.20
2023-03-26T04:11:26.338Z,8.20
2023-03-26T04:15:27.908Z,8.20
2023-03-26T04:19:29.478Z,8.20
2023-03-26T04:23:31.633Z,8.20
2023-03-26T04:27:35.515Z,8.20
2023-03-26T04:31:38.300Z,8.20
2023-03-26T04:35:41.705Z,8.30
2023-03-26T04:39:44.877Z,8.30
2023-03-26T04:43:50.664Z,8.30
2023-03-26T04:47:52.472Z,8.20
2023-03-26T04:51:54.201Z,8.30
2023-03-26T04:55:59.029Z,8.30
2023-03-26T05:00:00.720Z,8.30
2023-03-26T05:04:02.429Z,8.30
2023-03-26T05:08:04.290Z,8.30
2023-03-26T05:12:06.017Z,8.10
2023-03-26T05:16:07.890Z,8.10
2023-03-26T05:20:20.757Z,8.00
2023-03-26T05:24:24.593Z,8.00
2023-03-26T05:28:26.922Z,8.00
2023-03-26T05:32:28.734Z,7.80
2023-03-26T05:36:30.434Z,7.70
2023-03-26T05:40:32.117Z,7.90
2023-03-26T05:44:33.778Z,7.70
2023-03-26T05:48:35.471Z,7.70
2023-03-26T05:52:37.281Z,7.70
2023-03-26T05:56:39.189Z,7.60
2023-03-26T06:00:41.055Z,7.60
2023-03-26T06:04:42.883Z,7.70
2023-03-26T06:09:01.371Z,7.70
2023-03-26T06:13:04.559Z,7.70
2023-03-26T06:17:06.182Z,7.80
2023-03-26T06:21:07.872Z,7.70
2023-03-26T06:25:10.027Z,7.80
2023-03-26T06:29:11.659Z,7.70
2023-03-26T06:33:13.225Z,7.70
2023-03-26T06:37:15.495Z,7.70
2023-03-26T06:41:17.086Z,7.70
2023-03-26T06:45:18.788Z,7.70
2023-03-26T06:49:20.924Z,7.70
2023-03-26T06:53:22.523Z,7.70
2023-03-26T06:57:24.119Z,7.70
2023-03-26T07:01:25.783Z,7.70
2023-03-26T07:05:27.426Z,7.80
2023-03-26T07:09:32.099Z,7.80
2023-03-26T07:13:33.727Z,7.80
2023-03-26T07:17:35.342Z,7.70
2023-03-26T07:21:37.094Z,7.60
2023-03-26T07:25:38.851Z,7.40
2023-03-26T07:29:43.416Z,7.40
2023-03-26T07:33:48.064Z,7.40
2023-03-26T07:37:49.616Z,7.50
2023-03-26T07:41:58.050Z,7.50
2023-03-26T07:45:59.800Z,7.40
2023-03-26T07:50:02.467Z,7.40
2023-03-26T07:54:04.344Z,7.40
2023-03-26T07:58:23.303Z,7.40
2023-03-26T08:02:36.912Z,7.20
2023-03-26T08:06:39.598Z,7.40
2023-03-26T08:10:47.301Z,7.40
2023-03-26T08:14:55.242Z,7.60
2023-03-26T08:19:21.258Z,7.60
2023-03-26T08:23:29.524Z,7.60
2023-03-26T08:27:39.986Z,7.90
2023-03-26T08:31:43.631Z,7.60
2023-03-26T08:35:45.515Z,7.50
2023-03-26T08:39:47.436Z,7.70
2023-03-26T08:44:04.656Z,7.40
2023-03-26T08:48:06.474Z,7.50
2023-03-26T08:52:14.296Z,7.60
2023-03-26T08:56:22.900Z,7.70
2023-03-26T09:00:33.774Z,7.90
2023-03-26T09:04:37.881Z,8.20
2023-03-26T09:08:59.129Z,8.20
2023-03-26T09:13:09.884Z,8.40
2023-03-26T09:17:42.642Z,8.30
2023-03-26T09:21:59.288Z,8.60
2023-03-26T09:26:18.593Z,8.50
2023-03-26T09:30:39.133Z,8.30
2023-03-26T09:34:46.874Z,8.50
2023-03-26T09:39:02.233Z,8.40
2023-03-26T09:43:23.972Z,8.30
2023-03-26T09:47:44.167Z,8.40
2023-03-26T09:51:58.172Z,8.40
2023-03-26T09:56:04.252Z,8.30
2023-03-26T10:00:17.986Z,8.40
2023-03-26T10:04:38.487Z,8.60
2023-03-26T10:08:52.182Z,8.70
2023-03-26T10:13:22.923Z,8.70
2023-03-26T10:17:33.813Z,8.80
2023-03-26T10:21:54.257Z,8.70
2023-03-26T10:26:08.535Z,8.70
2023-03-26T10:30:13.179Z,8.90
2023-03-26T10:34:29.352Z,8.70
2023-03-26T10:38:34.349Z,8.90
2023-03-26T10:42:37.009Z,9.00
2023-03-26T10:46:48.588Z,8.90
2023-03-26T10:51:13.038Z,8.70
2023-03-26T10:55:18.353Z,8.70
2023-03-26T10:59:20.025Z,8.90
2023-03-26T11:03:54.641Z,8.50
2023-03-26T11:08:04.964Z,8.30
2023-03-26T11:12:26.532Z,8.20
2023-03-26T11:16:35.633Z,8.10
2023-03-26T11:20:44.696Z,8.10
2023-03-26T11:24:52.315Z,7.70
2023-03-26T11:29:32.547Z,7.60
2023-03-26T11:33:34.898Z,7.50
2023-03-26T11:37:41.519Z,7.40
2023-03-26T11:41:43.437Z,7.30
2023-03-26T11:45:46.596Z,7.20
2023-03-26T11:49:50.097Z,7.50
2023-03-26T11:53:51.976Z,7.60
2023-03-26T11:57:55.200Z,7.70
2023-03-26T12:01:56.972Z,7.70
2023-03-26T12:05:59.306Z,7.90
2023-03-26T12:10:18.126Z,8.00
2023-03-26T12:14:23.019Z,8.00
2023-03-26T12:18:26.476Z,8.10
2023-03-26T12:22:36.191Z,8.20
2023-03-26T12:26:39.576Z,8.10
2023-03-26T12:30:42.324Z,8.30
2023-03-26T12:34:44.036Z,8.20
2023-03-26T12:38:46.051Z,8.40
2023-03-26T12:44:55.849Z,8.40
2023-03-26T12:47:58.376Z,8.40
2023-03-26T12:52:23.213Z,8.40
2023-03-26T12:56:36.658Z,8.30
2023-03-26T13:00:53.673Z,8.30
2023-03-26T13:05:17.960Z,8.40
2023-03-26T13:09:19.631Z,8.40
2023-03-26T13:13:36.397Z,8.50
2023-03-26T13:17:44.325Z,8.60
2023-03-26T13:21:53.765Z,8.50
2023-03-26T13:26:18.526Z,8.60
2023-03-26T13:30:23.191Z,8.70
2023-03-26T13:34:43.709Z,8.60
2023-03-26T13:38:59.229Z,8.80
2023-03-26T13:43:05.250Z,9.00
2023-03-26T13:47:10.020Z,9.00
2023-03-26T13:51:16.505Z,9.10
2023-03-26T13:55:37.320Z,9.00
2023-03-26T13:59:40.547Z,8.60
2023-03-26T14:04:01.033Z,8.40
2023-03-26T14:08:22.948Z,8.60
2023-03-26T14:12:57.131Z,8.70
2023-03-26T14:17:03.447Z,8.60
2023-03-26T14:21:11.243Z,8.70
2023-03-26T14:25:22.039Z,8.80
2023-03-26T14:29:23.842Z,8.80
2023-03-26T14:33:34.041Z,8.80
2023-03-26T14:37:48.001Z,8.90
2023-03-26T14:41:49.663Z,8.90
2023-03-26T14:45:57.348Z,9.10
2023-03-26T14:50:15.683Z,9.00
2023-03-26T14:54:19.689Z,9.00
2023-03-26T14:58:22.287Z,9.00
2023-03-26T15:02:27.078Z,8.90
2023-03-26T15:06:47.605Z,8.80
2023-03-26T15:11:07.730Z,8.70
2023-03-26T15:15:33.320Z,8.20
2023-03-26T15:19:41.052Z,7.90
2023-03-26T15:23:47.269Z,7.80
2023-03-26T15:28:08.276Z,8.10
2023-03-26T15:32:19.093Z,8.10
2023-03-26T15:36:30.245Z,7.90
2023-03-26T15:40:36.460Z,8.00
2023-03-26T15:44:50.760Z,7.80
2023-03-26T15:49:12.262Z,7.70
2023-03-26T15:53:33.637Z,7.70
2023-03-26T15:57:41.522Z,7.50
2023-03-26T16:01:46.392Z,7.40
2023-03-26T16:06:15.831Z,7.30
2023-03-26T16:10:28.170Z,7.30
2023-03-26T16:14:36.297Z,7.10
2023-03-26T16:18:40.953Z,7.00
2023-03-26T16:22:54.856Z,7.10
2023-03-26T16:27:02.712Z,6.90
2023-03-26T16:31:23.676Z,6.80
2023-03-26T16:35:42.160Z,7.00
2023-03-26T16:39:44.208Z,7.00
2023-03-26T16:43:58.146Z,6.90
2023-03-26T16:48:18.694Z,6.90
2023-03-26T16:52:20.403Z,6.70
2023-03-26T16:56:45.541Z,6.70
2023-03-26T17:01:06.003Z,6.70
2023-03-26T17:05:22.803Z,6.80
2023-03-26T17:09:30.640Z,6.80
2023-03-26T17:13:40.234Z,6.70
2023-03-26T17:17:51.295Z,6.80
2023-03-26T17:22:00.496Z,6.70
2023-03-26T17:26:10.800Z,6.70
2023-03-26T17:30:29.163Z,6.70
2023-03-26T17:34:45.354Z,6.60
2023-03-26T17:38:47.444Z,6.60
2023-03-26T17:43:02.582Z,6.60
2023-03-26T17:47:06.546Z,6.60
2023-03-26T17:51:30.081Z,6.60
2023-03-26T17:55:37.719Z,6.60
2023-03-26T17:59:40.395Z,6.50
2023-03-26T18:03:49.286Z,6.50
2023-03-26T18:08:02.448Z,6.50
2023-03-26T18:12:20.566Z,6.60
2023-03-26T18:16:26.186Z,6.60
2023-03-26T18:20:28.877Z,6.60
2023-03-26T18:24:31.990Z,6.50
2023-03-26T18:28:41.359Z,6.50
2023-03-26T18:33:01.886Z,6.50
2023-03-26T18:37:14.751Z,6.50
2023-03-26T18:41:23.789Z,6.30
2023-03-26T18:45:25.403Z,6.10
2023-03-26T18:49:28.540Z,6.10
2023-03-26T18:53:31.142Z,6.00
2023-03-26T18:57:32.914Z,6.00
2023-03-26T19:01:36.591Z,6.00
2023-03-26T19:05:38.435Z,6.00
2023-03-26T19:09:41.300Z,6.00
2023-03-26T19:13:42.990Z,6.10
2023-03-26T19:17:49.342Z,6.10
2023-03-26T19:21:51.765Z,6.00
2023-03-26T19:25:54.983Z,6.10
2023-03-26T19:29:57.357Z,6.00
2023-03-26T19:33:59.352Z,6.10
2023-03-26T19:38:01.197Z,6.10
2023-03-26T19:42:04.703Z,6.10
2023-03-26T19:46:06.412Z,5.80
2023-03-26T19:50:15.309Z,5.70
2023-03-26T19:54:17.135Z,5.50
2023-03-26T19:58:19.691Z,5.50
2023-03-26T20:02:21.863Z,5.50
2023-03-26T20:06:33.877Z,5.50
2023-03-26T20:10:40.432Z,5.40
2023-03-26T20:14:43.455Z,5.30
2023-03-26T20:18:45.080Z,5.30
2023-03-26T20:22:47.037Z,5.20
2023-03-26T20:26:48.655Z,5.20
2023-03-26T20:30:50.943Z,5.20
2023-03-26T20:34:52.679Z,5.20
2023-03-26T20:38:54.413Z,5.20
2023-03-26T20:42:56.037Z,5.10
2023-03-26T20:47:00.817Z,5.10
2023-03-26T20:51:02.848Z,5.10
2023-03-26T20:55:06.143Z,5.00
2023-03-26T20:59:11.555Z,5.00
2023-03-26T21:03:14.783Z,5.00
2023-03-26T21:07:18.505Z,5.00
2023-03-26T21:11:26.564Z,5.00
2023-03-26T21:15:29.586Z,4.90
2023-03-26T21:19:31.792Z,4.90
2023-03-26T21:23:43.340Z,4.90
2023-03-26T21:27:48.111Z,4.80
2023-03-26T21:31:51.548Z,4.80
2023-03-26T21:35:57.098Z,4.70
2023-03-26T21:40:04.540Z,4.70
2023-03-26T21:44:06.191Z,4.70
2023-03-26T21:48:08.120Z,4.60
2023-03-26T21:52:15.511Z,4.50
2023-03-26T21:56:37.453Z,4.60
2023-03-26T22:01:02.533Z,4.60
2023-03-26T22:05:11.818Z,4.50
2023-03-26T22:09:20.678Z,4.40
2023-03-26T22:13:30.376Z,4.30
2023-03-26T22:17:37.755Z,4.30
2023-03-26T22:21:40.334Z,4.30
2023-03-26T22:25:44.064Z,4.30
2023-03-26T22:29:50.148Z,4.30
2023-03-26T22:33:55.709Z,4.20
2023-03-26T22:38:00.865Z,4.20
2023-03-26T22:42:04.181Z,4.20
2023-03-26T22:46:06.783Z,4.20
2023-03-26T22:50:08.747Z,4.10
2023-03-26T22:54:10.436Z,4.10
2023-03-26T22:58:12.533Z,4.00
2023-03-26T23:02:21.694Z,3.90
2023-03-26T23:06:23.299Z,3.90
2023-03-26T23:10:24.944Z,3.90
2023-03-26T23:14:28.522Z,3.80
2023-03-26T23:18:30.475Z,3.80
2023-03-26T23:22:32.423Z,3.70
2023-03-26T23:26:43.857Z,3.70
2023-03-26T23:30:52.261Z,3.60
2023-03-26T23:34:56.043Z,3.60
2023-03-26T23:38:58.886Z,3.50
2023-03-26T23:43:00.631Z,3.50
2023-03-26T23:47:02.403Z,3.30
2023-03-26T23:51:04.650Z,3.30
2023-03-26T23:55:06.865Z,3.20
2023-03-26T23:59:08.532Z,3.10
